Watertown, South Dakota
Current Conditions -  °F | °C
As of 10:29 AM on Saturday 22 Nov 2014 (Local Time) from KATY Reporting Station
Haze Haze  
Wind Chill: 14°   Ceiling: Unl
Heat Index: 25°   Visibility: 4mi
Dew Point: 23°   Wind: 12mph
Humidity: 92%   Direction: 160°SSE
Pressure: 29.62"   Gusts: NA
Location:  44.9°N, 97.1°W
Report Text: KATY 221629Z AUTO 16010KT 4SM BR FEW002 M04/M05 A2962 RMK AO2 T10391050
Loading
Personal Weather Stations






























Interactive Weather Map New forecast layout! Learn more

10-Day Weather Forecast

Advertisements
Track Severe Weather on mobile